createdAt,value
2022-07-30T00:04:55.698Z,4.72
2022-07-30T00:14:57.394Z,6.43
2022-07-30T00:24:59.341Z,7.60
2022-07-30T00:35:01.361Z,6.10
2022-07-30T00:45:03.261Z,6.90
2022-07-30T00:55:11.297Z,6.28
2022-07-30T01:05:13.703Z,9.38
2022-07-30T01:15:16.430Z,5.70
2022-07-30T01:25:25.072Z,5.28
2022-07-30T01:45:49.844Z,6.18
2022-07-30T01:55:55.354Z,5.70
2022-07-30T02:06:00.844Z,5.20
2022-07-30T02:16:18.364Z,6.35
2022-07-30T02:26:24.359Z,6.22
2022-07-30T02:36:30.135Z,5.90
2022-07-30T02:46:32.617Z,6.13
2022-07-30T02:56:37.019Z,6.82
2022-07-30T03:06:40.463Z,9.15
2022-07-30T03:16:47.365Z,8.80
2022-07-30T03:26:51.623Z,8.10
2022-07-30T03:36:56.074Z,8.32
2022-07-30T03:47:01.156Z,6.90
2022-07-30T03:57:04.317Z,5.85
2022-07-30T04:07:07.011Z,5.93
2022-07-30T04:17:12.241Z,5.00
2022-07-30T04:27:17.547Z,4.95
2022-07-30T04:37:25.909Z,4.80
2022-07-30T04:47:27.575Z,5.82
2022-07-30T04:57:31.659Z,5.45
2022-07-30T05:07:33.916Z,5.63
2022-07-30T05:17:36.781Z,5.50
2022-07-30T05:27:40.554Z,5.00
2022-07-30T05:37:42.357Z,13.15
2022-07-30T05:47:44.471Z,5.22
2022-07-30T05:57:46.130Z,5.38
2022-07-30T06:07:48.249Z,11.88
2022-07-30T06:18:01.861Z,5.22
2022-07-30T06:28:21.308Z,5.55
2022-07-30T06:38:26.092Z,12.25
2022-07-30T06:48:31.605Z,5.10
2022-07-30T06:58:33.481Z,12.07
2022-07-30T07:08:39.360Z,4.18
2022-07-30T07:18:41.065Z,8.13
2022-07-30T07:28:43.210Z,3.80
2022-07-30T07:38:49.181Z,3.92
2022-07-30T07:48:55.429Z,4.37
2022-07-30T07:58:57.848Z,3.80
2022-07-30T08:09:06.324Z,4.40
2022-07-30T08:19:07.980Z,3.80
2022-07-30T08:29:13.047Z,4.60
2022-07-30T08:39:18.561Z,4.25
2022-07-30T08:49:20.769Z,4.55
2022-07-30T08:59:25.245Z,6.65
2022-07-30T09:09:52.671Z,4.10
2022-07-30T09:20:05.430Z,4.22
2022-07-30T09:30:07.931Z,4.32
2022-07-30T09:40:18.332Z,5.47
2022-07-30T10:00:37.224Z,7.45
2022-07-30T10:10:46.899Z,16.13
2022-07-30T10:20:52.524Z,24.40
2022-07-30T10:30:55.683Z,29.98
2022-07-30T10:41:01.758Z,30.45
2022-07-30T10:51:05.972Z,33.92
2022-07-30T11:01:17.976Z,36.28
2022-07-30T11:11:59.210Z,33.30
2022-07-30T11:22:29.931Z,27.63
2022-07-30T11:32:33.980Z,14.13
2022-07-30T11:42:38.802Z,10.20
2022-07-30T11:52:44.173Z,8.90
2022-07-30T12:12:53.612Z,6.05
2022-07-30T12:22:56.251Z,5.07
2022-07-30T12:32:59.626Z,4.57
2022-07-30T12:43:01.459Z,4.55
2022-07-30T12:53:04.454Z,4.80
2022-07-30T13:03:23.229Z,3.35
2022-07-30T13:13:27.608Z,3.47
2022-07-30T13:23:31.679Z,1.63
2022-07-30T13:33:35.698Z,0.95
2022-07-30T13:43:37.479Z,1.52
2022-07-30T13:53:39.152Z,6.60
2022-07-30T14:03:44.704Z,1.23
2022-07-30T14:13:52.747Z,1.20
2022-07-30T14:23:57.886Z,1.10
2022-07-30T14:34:10.263Z,1.30
2022-07-30T14:54:32.187Z,6.57
2022-07-30T15:04:39.827Z,1.30
2022-07-30T15:14:42.418Z,1.23
2022-07-30T15:24:45.536Z,1.80
2022-07-30T15:34:50.311Z,1.33
2022-07-30T15:45:15.317Z,1.45
2022-07-30T15:55:17.274Z,1.30
2022-07-30T16:05:21.052Z,2.00
2022-07-30T16:15:23.101Z,1.15
2022-07-30T16:25:24.953Z,1.40
2022-07-30T16:35:26.789Z,2.00
2022-07-30T16:45:31.214Z,1.00
2022-07-30T16:55:35.068Z,1.55
2022-07-30T17:05:37.873Z,1.92
2022-07-30T17:15:47.558Z,1.80
2022-07-30T17:25:49.364Z,1.40
2022-07-30T17:35:51.089Z,1.67
2022-07-30T17:45:52.842Z,1.90
2022-07-30T17:55:57.454Z,1.77
2022-07-30T18:06:00.969Z,2.35
2022-07-30T18:16:03.729Z,2.33
2022-07-30T18:26:05.601Z,2.20
2022-07-30T18:36:11.132Z,12.80
2022-07-30T18:46:16.470Z,3.00
2022-07-30T18:56:18.332Z,3.97
2022-07-30T19:06:21.511Z,2.78
2022-07-30T19:16:23.354Z,2.53
2022-07-30T19:26:25.095Z,2.63
2022-07-30T19:36:29.552Z,2.85
2022-07-30T19:46:36.454Z,3.25
2022-07-30T19:56:38.714Z,3.33
2022-07-30T20:06:45.977Z,3.80
2022-07-30T20:16:48.189Z,2.92
2022-07-30T20:26:52.435Z,3.35
2022-07-30T20:36:59.359Z,3.75
2022-07-30T20:47:34.298Z,4.43
2022-07-30T20:57:57.198Z,4.80
2022-07-30T21:08:01.746Z,4.25
2022-07-30T21:18:04.927Z,4.55
2022-07-30T21:28:08.159Z,4.90
2022-07-30T21:38:10.129Z,4.47
2022-07-30T21:48:12.931Z,5.68
2022-07-30T21:58:24.073Z,5.55
2022-07-30T22:08:30.876Z,5.47
2022-07-30T22:18:34.235Z,5.55
2022-07-30T22:28:35.995Z,5.43
2022-07-30T22:38:39.692Z,5.97
2022-07-30T22:48:43.309Z,6.40
2022-07-30T23:09:14.026Z,6.30
2022-07-30T23:12:34.677Z,5.90
2022-07-30T23:19:16.847Z,5.68
2022-07-30T23:29:23.951Z,5.32
2022-07-30T23:39:25.660Z,5.65
2022-07-30T23:49:27.664Z,5.40
2022-07-30T23:59:36.888Z,5.47
